Time;durP1;ratioP1;P1;durP2;ratioP2;P2;SDS_P1;SDS_P2;PMS_P1;PMS_P2;Temp;Humidity;BMP_temperature;BMP_pressure;BME280_temperature;BME280_humidity;BME280_pressure;Samples;Min_cycle;Max_cycle;Signal;HPM_P1;HPM_P2
2021/12/03 09:16:52;;;;;;;10.08;2.77;;;12.40;67.20;;;;;;1958487;73;26263;-42
2021/12/03 09:19:29;;;;;;;3.92;1.95;;;12.40;69.00;;;;;;1916974;74;21097;-42
2021/12/03 09:21:54;;;;;;;3.85;1.95;;;12.50;68.40;;;;;;1917041;74;21030;-44
2021/12/03 09:26:55;;;;;;;1.87;1.55;;;;;;;;;;1958481;73;26301;-44
2021/12/03 09:29:30;;;;;;;1.70;1.55;;;;;;;;;;1917618;75;21059;-45
2021/12/03 09:31:55;;;;;;;4.80;1.95;;;;;;;;;;1916846;74;21426;-42
2021/12/03 09:34:24;;;;;;;7.72;2.12;;;;;;;;;;1917652;73;21022;-42
2021/12/03 09:36:53;;;;;;;2.58;1.60;;;;;;;;;;1917482;73;21124;-44
2021/12/03 09:39:23;;;;;;;15.23;3.30;;;;;;;;;;1917447;75;21058;-43
2021/12/03 09:41:53;;;;;;;4.30;2.17;;;;;;;;;;1917781;75;21074;-45
2021/12/03 09:44:22;;;;;;;7.85;2.77;;;;;;;;;;1917531;75;21015;-45
2021/12/03 09:46:51;;;;;;;2.62;2.22;;;;;;;;;;1917710;73;21066;-43
2021/12/03 09:49:33;;;;;;;3.72;1.95;;;;;;;;;;1917632;75;21031;-46
2021/12/03 09:52:08;;;;;;;4.22;1.90;;;;;;;;;;1915660;74;21540;-42
2021/12/03 09:54:45;;;;;;;2.77;2.05;;;;;;;;;;1886807;74;21023;-43
2021/12/03 09:57:18;;;;;;;4.15;1.80;;;;;;;;;;1884887;76;21352;-44
2021/12/03 10:02:53;;;;;;;3.40;1.82;;;;;;;;;;1883834;75;21147;-43
2021/12/03 10:06:08;;;;;;;2.22;1.92;;;;;;;;;;1883110;75;21074;-45
2021/12/03 10:16:08;;;;;;;6.75;2.52;;;;;;;;;;1884986;76;21590;-41
2021/12/03 10:18:58;;;;;;;3.98;2.40;;;;;;;;;;1884686;76;21608;-42
2021/12/03 10:22:02;;;;;;;9.70;3.42;;;;;;;;;;1885048;75;21606;-42
2021/12/03 10:25:13;;;;;;;2.65;1.30;;;;;;;;;;1881316;75;21050;-43
2021/12/03 10:29:33;;;;;;;20.65;3.27;;;;;;;;;;1884711;76;21023;-41
2021/12/03 10:59:42;;;;;;;6.22;1.60;;;;;;;;;;1884287;76;21058;-44
2021/12/03 11:13:27;;;;;;;2.83;1.45;;;;;;;;;;1884051;76;21094;-42
2021/12/03 11:18:58;;;;;;;7.10;1.80;;;;;;;;;;1883905;76;21148;-43
2021/12/03 11:21:51;;;;;;;10.20;5.87;;;;;;;;;;1880633;75;21492;-43
2021/12/03 11:30:10;;;;;;;1.65;1.25;;;;;;;;;;1850155;76;21034;-42
2021/12/03 11:37:37;;;;;;;5.50;1.70;;;;;;;;;;1847021;76;21538;-42
2021/12/03 11:46:32;;;;;;;3.42;1.77;;;;;;;;;;1847055;76;21081;-42
2021/12/03 12:08:37;;;;;;;4.53;1.55;;;;;;;;;;1854698;76;21127;-42
2021/12/03 12:11:09;;;;;;;4.78;2.27;;;;;;;;;;1838537;78;21098;-41
2021/12/03 12:24:06;;;;;;;3.70;1.40;;;;;;;;;;1842304;78;21050;-43
2021/12/03 12:41:02;;;;;;;4.75;1.50;;;;;;;;;;1872707;77;21105;-42
2021/12/03 13:05:22;;;;;;;4.40;2.02;;;;;;;;;;1872579;76;21051;-42
2021/12/03 13:21:26;;;;;;;11.80;2.42;;;;;;;;;;1887448;75;21042;-41
2021/12/03 13:32:32;;;;;;;3.90;2.20;;;;;;;;;;1872800;77;21144;-42
2021/12/03 13:42:49;;;;;;;5.70;2.30;;;;;;;;;;1872711;77;21505;-44
2021/12/03 14:04:23;;;;;;;4.30;2.55;;;11.80;66.30;;;;;;1917997;73;21120;-42
2021/12/03 14:39:49;;;;;;;13.85;3.75;;;11.40;68.10;;;;;;1917585;73;21112;-40
2021/12/03 14:42:30;;;;;;;3.40;2.30;;;11.40;68.20;;;;;;1915287;74;21105;-40
2021/12/03 14:45:11;;;;;;;6.72;2.20;;;11.40;68.80;;;;;;1914000;74;21435;-41
2021/12/03 14:50:58;;;;;;;2.87;1.95;;;11.30;68.70;;;;;;1917053;75;21116;-40
2021/12/03 14:55:56;;;;;;;4.62;2.52;;;11.30;69.00;;;;;;1917759;75;21086;-42
2021/12/03 14:59:09;;;;;;;6.50;2.63;;;11.30;69.60;;;;;;1918337;74;21116;-42
2021/12/03 15:01:11;;;;;;;6.08;2.95;;;11.30;69.80;;;;;;1912366;75;21055;-41
2021/12/03 15:27:09;;;;;;;4.30;1.57;;;11.20;72.00;;;;;;1918304;75;21100;-41
2021/12/03 15:32:15;;;;;;;4.05;2.75;;;11.20;71.80;;;;;;1918169;75;21109;-43
2021/12/03 15:34:55;;;;;;;2.83;1.90;;;11.30;72.00;;;;;;1918278;74;21035;-40
2021/12/03 15:40:37;;;;;;;3.17;2.05;;;11.20;72.80;;;;;;1918224;74;21143;-42
2021/12/03 16:04:42;;;;;;;5.12;2.12;;;11.30;73.30;;;;;;1903009;73;21152;-41
2021/12/03 16:07:22;;;;;;;3.83;1.80;;;11.30;73.10;;;;;;1885633;76;21046;-42
2021/12/03 16:12:45;;;;;;;3.22;2.25;;;11.30;73.60;;;;;;1885680;75;21045;-41
2021/12/03 16:18:14;;;;;;;6.10;3.02;;;11.30;73.70;;;;;;1873374;75;21047;-40
2021/12/03 16:43:39;;;;;;;2.95;1.87;;;11.30;73.90;;;;;;1889422;75;21109;-42
2021/12/03 16:45:19;;;;;;;4.42;2.55;;;11.30;74.70;;;;;;1872855;75;21112;-43
2021/12/03 16:50:50;;;;;;;4.70;1.92;;;11.30;74.90;;;;;;1872797;75;21055;-41
2021/12/03 16:53:02;;;;;;;3.08;2.12;;;11.30;74.90;;;;;;1871186;75;21102;-41
2021/12/03 16:55:31;;;;;;;5.08;3.02;;;11.30;74.80;;;;;;1872795;76;21011;-41
2021/12/03 16:58:01;;;;;;;3.52;2.20;;;11.30;74.70;;;;;;1872902;75;21109;-41
2021/12/03 17:00:41;;;;;;;2.70;1.90;;;11.30;75.00;;;;;;1873040;75;21094;-40
2021/12/03 17:03:15;;;;;;;3.52;2.40;;;11.20;75.00;;;;;;1872666;76;21043;-41
2021/12/03 17:08:36;;;;;;;2.83;2.50;;;11.30;74.80;;;;;;1872749;75;21051;-40
2021/12/03 17:13:59;;;;;;;2.62;2.00;;;11.30;74.70;;;;;;1872755;77;21055;-40
2021/12/03 17:16:44;;;;;;;7.15;2.72;;;11.30;74.70;;;;;;1879045;76;21166;-41
2021/12/03 17:46:47;;;;;;;2.62;2.10;;;11.30;73.70;;;;;;1882949;76;21116;-41
2021/12/03 17:51:59;;;;;;;3.85;2.15;;;11.20;73.60;;;;;;1882839;75;21053;-41
2021/12/03 17:54:36;;;;;;;4.03;2.20;;;11.20;73.50;;;;;;1882268;76;21025;-42
2021/12/03 17:57:45;;;;;;;8.00;2.20;;;11.20;73.50;;;;;;1881990;75;21103;-41
2021/12/03 17:59:39;;;;;;;;;;;11.20;73.40;;;;;;1866233;75;21045;-43
2021/12/03 18:05:05;;;;;;;3.25;2.10;;;11.10;72.90;;;;;;1882954;75;21061;-41
2021/12/03 18:16:16;;;;;;;8.68;2.40;;;11.20;71.20;;;;;;1879705;75;21124;-40
2021/12/03 18:51:30;;;;;;;2.75;1.95;;;11.00;71.70;;;;;;1872830;75;21054;-40
2021/12/03 18:56:33;;;;;;;8.83;2.75;;;11.10;71.50;;;;;;1872757;75;21090;-43
2021/12/03 18:59:07;;;;;;;3.27;2.40;;;11.10;71.30;;;;;;1872835;75;21031;-40
2021/12/03 19:01:34;;;;;;;5.10;2.40;;;11.10;71.40;;;;;;1872687;75;21477;-42
2021/12/03 19:06:44;;;;;;;4.25;2.30;;;11.00;71.40;;;;;;1872682;75;21085;-41
2021/12/03 19:09:15;;;;;;;4.12;2.27;;;11.00;71.70;;;;;;1872463;75;21047;-40
2021/12/03 19:12:00;;;;;;;4.33;2.27;;;11.00;71.60;;;;;;1872579;75;21087;-40
2021/12/03 19:14:29;;;;;;;5.37;2.20;;;11.00;71.50;;;;;;1872632;76;21031;-40
2021/12/03 19:16:58;;;;;;;3.02;2.33;;;11.00;70.90;;;;;;1878415;75;21561;-41
2021/12/03 19:19:30;;;;;;;4.05;2.10;;;11.00;71.00;;;;;;1882818;76;21495;-40
2021/12/03 19:21:59;;;;;;;3.33;2.52;;;11.00;70.90;;;;;;1882897;75;21112;-40
2021/12/03 19:24:29;;;;;;;5.92;3.35;;;11.10;70.70;;;;;;1882871;75;21099;-41
2021/12/03 19:26:59;;;;;;;3.30;2.25;;;11.10;70.40;;;;;;1882837;75;21029;-41
2021/12/03 19:29:28;;;;;;;6.33;2.40;;;11.10;70.50;;;;;;1882754;75;21088;-41
2021/12/03 19:31:58;;;;;;;3.85;2.30;;;11.10;70.30;;;;;;1882823;76;21026;-43
2021/12/03 19:34:27;;;;;;;3.65;2.47;;;11.10;70.10;;;;;;1882881;76;21046;-40
2021/12/03 19:36:58;;;;;;;3.52;2.35;;;11.20;69.60;;;;;;1882836;75;21071;-40
2021/12/03 19:39:27;;;;;;;4.55;2.08;;;11.20;69.60;;;;;;1882804;75;21021;-40
2021/12/03 19:42:08;;;;;;;3.85;2.17;;;11.20;69.20;;;;;;1882751;76;21033;-41
2021/12/03 19:47:07;;;;;;;4.78;2.55;;;11.30;69.20;;;;;;1882841;75;21017;-40
2021/12/03 19:50:32;;;;;;;2.37;1.92;;;11.30;69.00;;;;;;1882742;75;21037;-41
2021/12/03 19:52:36;;;;;;;4.55;2.35;;;11.30;68.50;;;;;;1860177;76;21092;-41
2021/12/03 19:54:55;;;;;;;5.83;2.00;;;11.40;68.60;;;;;;1879529;76;21135;-43
2021/12/03 19:57:25;;;;;;;3.52;2.35;;;11.30;68.00;;;;;;1882984;75;21029;-41
2021/12/03 19:59:54;;;;;;;3.55;1.92;;;11.40;67.20;;;;;;1882665;75;21022;-42
2021/12/03 20:02:24;;;;;;;2.98;2.20;;;11.40;67.50;;;;;;1882881;75;21024;-42
2021/12/03 20:04:53;;;;;;;3.67;2.85;;;11.40;66.30;;;;;;1882904;75;21072;-41
2021/12/03 20:07:23;;;;;;;5.37;2.15;;;11.50;66.20;;;;;;1882986;75;21126;-41
2021/12/03 20:10:08;;;;;;;3.72;2.60;;;11.50;66.00;;;;;;1882887;76;21069;-40
2021/12/03 20:12:33;;;;;;;3.72;2.30;;;11.50;65.50;;;;;;1881889;75;21061;-41
2021/12/03 20:15:06;;;;;;;3.60;2.25;;;11.60;65.50;;;;;;1883022;76;21057;-42
2021/12/03 20:17:42;;;;;;;3.42;2.25;;;11.60;65.30;;;;;;1887714;75;21058;-42
2021/12/03 20:20:07;;;;;;;4.53;2.08;;;11.60;65.20;;;;;;1890374;74;21034;-41
2021/12/03 20:22:44;;;;;;;2.72;2.25;;;11.60;65.30;;;;;;1891482;76;21543;-41
2021/12/03 20:33:10;;;;;;;3.70;2.22;;;11.60;65.40;;;;;;1891464;74;21050;-41
2021/12/03 20:38:17;;;;;;;2.83;2.08;;;11.70;65.20;;;;;;1891604;76;21117;-41
2021/12/03 20:40:52;;;;;;;2.75;1.90;;;11.70;64.40;;;;;;1891641;74;21084;-41
2021/12/03 20:48:40;;;;;;;3.22;2.17;;;11.80;63.40;;;;;;1891620;76;21050;-43
2021/12/03 20:51:19;;;;;;;2.83;2.10;;;11.80;63.60;;;;;;1890037;75;21092;-41
2021/12/03 21:07:58;;;;;;;6.25;2.50;;;11.80;62.10;;;;;;1891487;74;21042;-40
2021/12/03 21:10:04;;;;;;;9.38;2.70;;;11.80;62.40;;;;;;1891636;74;21077;-41
2021/12/03 21:12:57;;;;;;;2.08;1.80;;;11.90;61.40;;;;;;1891566;75;21108;-42
2021/12/03 21:15:32;;;;;;;2.40;1.95;;;11.90;62.00;;;;;;1887207;74;21101;-40
2021/12/03 21:17:45;;;;;;;3.83;2.22;;;11.90;61.90;;;;;;1887166;75;21124;-42
2021/12/03 21:20:26;;;;;;;2.70;1.92;;;11.90;62.40;;;;;;1890843;75;21034;-40
2021/12/03 21:23:07;;;;;;;4.20;2.37;;;11.90;62.40;;;;;;1891475;75;21022;-43
2021/12/03 21:25:36;;;;;;;11.80;2.60;;;12.00;62.60;;;;;;1891514;75;21050;-42
2021/12/03 21:30:53;;;;;;;1.87;1.47;;;12.00;62.00;;;;;;1891577;74;21542;-42
2021/12/03 21:33:39;;;;;;;3.25;2.00;;;12.00;62.10;;;;;;1891336;75;21092;-41
2021/12/03 21:38:46;;;;;;;2.08;1.70;;;12.00;62.20;;;;;;1870946;75;21038;-40
2021/12/03 21:43:57;;;;;;;5.55;2.20;;;12.00;62.70;;;;;;1891658;76;21046;-42
2021/12/03 21:46:28;;;;;;;2.50;1.85;;;12.00;62.70;;;;;;1891617;75;21030;-41
2021/12/03 21:48:58;;;;;;;1.90;1.65;;;12.00;62.50;;;;;;1891614;74;21085;-42
2021/12/03 21:51:27;;;;;;;3.62;2.30;;;12.00;62.50;;;;;;1891556;75;21039;-41
2021/12/03 21:53:56;;;;;;;3.25;2.17;;;12.00;63.00;;;;;;1891631;74;21038;-41
2021/12/03 21:56:27;;;;;;;2.95;1.87;;;12.10;63.00;;;;;;1891451;75;21006;-42
2021/12/03 21:58:56;;;;;;;5.33;2.10;;;12.00;62.90;;;;;;1891718;75;21026;-41
2021/12/03 22:01:26;;;;;;;4.30;2.20;;;12.00;63.10;;;;;;1891523;75;21049;-42
2021/12/03 22:03:56;;;;;;;5.37;2.20;;;12.00;63.20;;;;;;1891577;76;21023;-40
2021/12/03 22:06:28;;;;;;;3.15;1.98;;;12.00;63.30;;;;;;1891418;76;21034;-41
2021/12/03 22:08:57;;;;;;;4.20;2.65;;;11.90;63.10;;;;;;1891576;74;21090;-41
2021/12/03 22:11:28;;;;;;;4.40;2.02;;;12.00;63.10;;;;;;1891634;76;21054;-41
2021/12/03 22:13:58;;;;;;;3.58;2.12;;;11.90;62.70;;;;;;1891589;75;21002;-41
2021/12/03 22:16:27;;;;;;;2.70;2.10;;;11.90;62.90;;;;;;1891567;76;21069;-40
2021/12/03 22:18:57;;;;;;;4.62;2.20;;;11.90;63.00;;;;;;1878008;75;21055;-40
2021/12/03 22:21:26;;;;;;;3.08;2.20;;;11.90;63.00;;;;;;1872871;77;21031;-41
2021/12/03 22:23:56;;;;;;;3.85;2.50;;;11.90;62.90;;;;;;1872924;76;21011;-42
2021/12/03 22:26:26;;;;;;;4.25;2.42;;;11.90;62.70;;;;;;1872789;76;21027;-41
2021/12/03 22:28:56;;;;;;;3.15;2.02;;;11.90;62.40;;;;;;1872949;75;21007;-42
2021/12/03 22:31:25;;;;;;;4.28;1.87;;;11.80;62.30;;;;;;1872937;75;21089;-41
2021/12/03 22:33:55;;;;;;;2.25;1.70;;;11.80;62.20;;;;;;1872847;75;21030;-41
2021/12/03 22:36:24;;;;;;;3.65;2.00;;;11.90;62.00;;;;;;1872736;75;21090;-41
2021/12/03 22:38:54;;;;;;;6.10;2.00;;;11.90;61.70;;;;;;1872839;75;21059;-41
2021/12/03 22:41:24;;;;;;;2.90;2.00;;;11.90;61.70;;;;;;1872674;77;21022;-41
2021/12/03 22:43:55;;;;;;;3.33;2.05;;;11.90;62.10;;;;;;1872748;75;21026;-42
2021/12/03 22:54:16;;;;;;;2.87;2.45;;;11.90;62.10;;;;;;1873125;75;21047;-41
2021/12/03 22:56:46;;;;;;;3.65;1.75;;;11.90;62.80;;;;;;1872691;77;21031;-42
2021/12/03 22:59:16;;;;;;;3.37;1.87;;;11.90;63.30;;;;;;1872647;75;21027;-41
2021/12/03 23:01:45;;;;;;;5.05;2.22;;;11.90;63.80;;;;;;1872713;75;20999;-42
2021/12/03 23:04:15;;;;;;;3.80;2.05;;;11.90;64.00;;;;;;1872724;75;21043;-40
2021/12/03 23:06:44;;;;;;;5.97;2.00;;;11.80;64.30;;;;;;1872635;76;21461;-41
2021/12/03 23:09:15;;;;;;;3.45;1.80;;;11.80;64.50;;;;;;1872698;75;21039;-40
2021/12/03 23:11:45;;;;;;;2.83;2.08;;;11.80;64.60;;;;;;1872733;75;21101;-40
2021/12/03 23:14:15;;;;;;;3.25;2.12;;;11.80;64.90;;;;;;1872718;77;21027;-41
2021/12/03 23:16:44;;;;;;;2.27;1.70;;;11.70;65.00;;;;;;1872794;77;21031;-43
2021/12/03 23:19:13;;;;;;;2.90;1.72;;;11.70;65.20;;;;;;1878849;75;21119;-41
2021/12/03 23:21:43;;;;;;;3.25;2.00;;;11.70;65.50;;;;;;1882733;76;21167;-41
2021/12/03 23:24:13;;;;;;;3.50;2.05;;;11.70;65.50;;;;;;1882815;76;21129;-41
2021/12/03 23:26:42;;;;;;;3.52;2.12;;;11.70;65.90;;;;;;1882771;75;21037;-42
2021/12/03 23:29:14;;;;;;;2.75;2.10;;;11.70;65.90;;;;;;1882907;76;21017;-41
2021/12/03 23:31:44;;;;;;;3.50;2.35;;;11.60;66.10;;;;;;1882863;76;21451;-42
2021/12/03 23:34:17;;;;;;;4.58;2.30;;;11.70;66.30;;;;;;1882824;75;21111;-40
2021/12/03 23:36:47;;;;;;;3.15;2.02;;;11.60;66.40;;;;;;1882695;75;21147;-41
2021/12/03 23:39:17;;;;;;;2.55;2.35;;;11.60;66.60;;;;;;1882887;76;21022;-42
2021/12/03 23:41:46;;;;;;;6.00;2.10;;;11.60;66.70;;;;;;1882808;76;21025;-41
2021/12/03 23:44:15;;;;;;;3.87;2.10;;;11.60;66.80;;;;;;1883001;75;21034;-41
2021/12/03 23:46:45;;;;;;;3.02;1.75;;;11.60;66.80;;;;;;1882980;76;21091;-42
2021/12/03 23:49:14;;;;;;;2.95;2.20;;;11.70;66.30;;;;;;1882840;75;21033;-40
2021/12/03 23:51:56;;;;;;;2.50;2.17;;;11.70;66.20;;;;;;1882964;75;20997;-41
2021/12/03 23:54:28;;;;;;;2.98;2.25;;;11.80;66.20;;;;;;1882993;75;21096;-41
2021/12/03 23:57:00;;;;;;;5.45;2.08;;;11.80;65.90;;;;;;1882763;76;21033;-42
2021/12/03 23:59:30;;;;;;;2.67;1.72;;;11.80;65.80;;;;;;1883205;75;21083;-41
